Time;durP1;ratioP1;P1;durP2;ratioP2;P2;SDS_P1;SDS_P2;PMS_P1;PMS_P2;Temp;Humidity;BMP_temperature;BMP_pressure;BME280_temperature;BME280_humidity;BME280_pressure;Samples;Min_cycle;Max_cycle;Signal;HPM_P1;HPM_P2
2023/02/14 00:00:41;;;;;;;0.75;0.75;;;7.00;99.90;;;;;;4430538;32;20549;-66
2023/02/14 00:03:07;;;;;;;0.62;0.62;;;7.00;99.90;;;;;;4404291;32;20109;-65
2023/02/14 00:05:33;;;;;;;4.57;2.00;;;7.00;99.90;;;;;;4426297;32;20438;-66
2023/02/14 00:07:58;;;;;;;30.80;1.80;;;7.00;99.90;;;;;;4435157;32;20076;-66
2023/02/14 00:10:24;;;;;;;5.95;2.20;;;7.00;99.90;;;;;;4428813;32;20080;-65
2023/02/14 00:12:49;;;;;;;1.27;1.17;;;6.80;99.90;;;;;;4430819;32;20085;-65
2023/02/14 00:15:22;;;;;;;0.88;0.82;;;6.80;99.90;;;;;;4429789;32;20253;-65
2023/02/14 00:17:49;;;;;;;0.52;0.52;;;6.90;99.90;;;;;;4431199;32;20085;-66
2023/02/14 00:20:14;;;;;;;3.97;1.00;;;6.90;99.90;;;;;;4429579;32;20483;-68
2023/02/14 00:22:40;;;;;;;1.45;1.00;;;7.00;99.90;;;;;;4411368;32;20138;-67
2023/02/14 00:25:06;;;;;;;9.43;1.87;;;7.00;99.90;;;;;;4434273;32;20635;-68
2023/02/14 00:27:31;;;;;;;0.75;0.75;;;6.90;99.90;;;;;;4438425;32;20493;-68
2023/02/14 00:30:00;;;;;;;2.90;1.25;;;6.90;99.90;;;;;;4438517;32;20081;-68
2023/02/14 00:32:26;;;;;;;10.60;1.52;;;6.90;99.90;;;;;;4437037;32;20097;-66
2023/02/14 00:34:52;;;;;;;3.87;0.93;;;6.90;99.90;;;;;;4434046;32;20123;-68
2023/02/14 00:37:17;;;;;;;2.45;1.70;;;6.90;99.90;;;;;;4432786;32;20548;-65
2023/02/14 00:39:43;;;;;;;1.12;1.08;;;6.90;99.90;;;;;;4438828;32;20187;-68
2023/02/14 00:42:08;;;;;;;3.80;1.05;;;6.80;99.90;;;;;;4435353;32;20088;-67
2023/02/14 00:44:34;;;;;;;0.68;0.68;;;6.80;99.90;;;;;;4431369;32;20089;-67
2023/02/14 00:46:59;;;;;;;0.60;0.60;;;6.70;99.90;;;;;;4437016;32;20139;-67
2023/02/14 00:49:25;;;;;;;2.22;1.48;;;6.70;99.90;;;;;;4433370;32;20122;-67
2023/02/14 00:51:50;;;;;;;1.60;1.48;;;6.70;99.90;;;;;;4431140;32;20081;-68
2023/02/14 00:54:15;;;;;;;2.72;1.35;;;6.70;99.90;;;;;;4431544;32;20109;-68
2023/02/14 00:56:41;;;;;;;6.50;1.95;;;6.80;99.90;;;;;;4433571;32;20180;-66
2023/02/14 00:59:07;;;;;;;2.35;1.37;;;6.70;99.90;;;;;;4431287;32;20069;-67
2023/02/14 01:01:32;;;;;;;2.90;1.25;;;6.80;99.90;;;;;;4434817;32;20072;-68
2023/02/14 01:03:58;;;;;;;6.20;1.58;;;6.80;99.90;;;;;;4417203;32;20094;-68
2023/02/14 01:06:24;;;;;;;2.37;1.58;;;6.70;99.90;;;;;;4432109;32;20089;-67
2023/02/14 01:08:49;;;;;;;1.60;0.82;;;6.60;99.90;;;;;;4434874;32;20097;-66
2023/02/14 01:11:18;;;;;;;20.02;1.42;;;6.60;99.90;;;;;;4434786;32;20093;-67
2023/02/14 01:13:44;;;;;;;16.02;0.70;;;6.70;99.90;;;;;;4420322;32;20061;-68
2023/02/14 01:16:12;;;;;;;9.30;1.05;;;6.70;99.90;;;;;;4430640;32;20072;-65
2023/02/14 01:18:38;;;;;;;4.82;1.33;;;6.70;99.90;;;;;;4434572;32;20477;-67
2023/02/14 01:21:28;;;;;;;0.90;0.90;;;6.70;99.90;;;;;;4418097;32;20085;-67
2023/02/14 01:23:55;;;;;;;1.55;1.27;;;6.60;99.90;;;;;;4420942;32;20508;-68
2023/02/14 01:26:22;;;;;;;0.60;0.60;;;6.60;99.90;;;;;;4419858;32;20452;-68
2023/02/14 01:28:48;;;;;;;1.00;0.90;;;6.60;99.90;;;;;;4416312;32;20123;-67
2023/02/14 01:31:17;;;;;;;1.37;1.00;;;6.60;99.90;;;;;;4434921;32;20077;-66
2023/02/14 01:33:44;;;;;;;1.35;1.25;;;6.50;99.90;;;;;;4433382;32;20410;-67
2023/02/14 01:36:19;;;;;;;4.60;1.35;;;6.50;99.90;;;;;;4434099;32;20084;-67
2023/02/14 01:38:45;;;;;;;1.48;1.23;;;6.60;99.90;;;;;;4414809;32;20454;-68
2023/02/14 01:41:11;;;;;;;1.48;1.23;;;6.60;99.90;;;;;;4434150;32;20085;-67
2023/02/14 01:43:58;;;;;;;1.62;1.52;;;6.60;99.90;;;;;;4432748;32;20108;-66
2023/02/14 01:46:26;;;;;;;4.22;1.02;;;6.60;99.90;;;;;;4414213;32;20077;-67
2023/02/14 01:48:55;;;;;;;1.00;0.88;;;6.70;99.90;;;;;;4415236;32;20077;-67
2023/02/14 01:51:21;;;;;;;1.12;1.00;;;6.70;99.90;;;;;;4431310;32;20435;-67
2023/02/14 01:53:48;;;;;;;0.82;0.80;;;6.70;99.90;;;;;;4433818;32;20089;-67
2023/02/14 01:56:20;;;;;;;0.70;0.70;;;6.80;99.90;;;;;;4435120;32;20088;-67
2023/02/14 01:58:49;;;;;;;3.30;1.05;;;6.80;99.90;;;;;;4417357;32;20484;-67
2023/02/14 02:01:16;;;;;;;1.48;1.17;;;6.80;99.90;;;;;;4430779;32;20073;-66
2023/02/14 02:03:48;;;;;;;2.72;1.27;;;6.80;99.90;;;;;;4418193;32;20073;-67
2023/02/14 02:06:22;;;;;;;1.65;1.10;;;6.70;99.90;;;;;;4434059;32;20097;-67
2023/02/14 02:09:12;;;;;;;0.70;0.70;;;6.80;99.90;;;;;;4435052;32;20078;-68
2023/02/14 02:11:39;;;;;;;1.70;1.10;;;6.80;99.90;;;;;;4422954;32;20092;-67
2023/02/14 02:14:04;;;;;;;1.37;1.00;;;6.80;99.90;;;;;;4436606;32;20093;-66
2023/02/14 02:16:43;;;;;;;7.03;1.77;;;6.70;99.90;;;;;;4433954;32;20077;-68
2023/02/14 02:19:34;;;;;;;0.60;0.60;;;6.60;99.90;;;;;;4435019;32;20064;-67
2023/02/14 02:22:21;;;;;;;1.65;1.42;;;6.60;99.90;;;;;;4432600;32;20109;-66
2023/02/14 02:25:12;;;;;;;2.75;1.17;;;6.70;99.90;;;;;;4419381;32;20450;-65
2023/02/14 02:28:04;;;;;;;0.88;0.88;;;6.60;99.90;;;;;;4419913;32;20492;-66
2023/02/14 02:30:58;;;;;;;1.15;1.05;;;6.70;99.90;;;;;;4431366;32;20591;-68
2023/02/14 02:33:56;;;;;;;2.55;0.80;;;6.60;99.90;;;;;;4417305;32;20970;-67
2023/02/14 02:36:51;;;;;;;5.25;1.02;;;6.70;99.90;;;;;;4417404;32;20175;-66
2023/02/14 02:39:44;;;;;;;2.92;1.15;;;6.80;99.90;;;;;;4417656;32;20076;-67
2023/02/14 02:42:30;;;;;;;1.52;1.37;;;6.80;99.90;;;;;;4419333;32;20706;-66
2023/02/14 02:45:16;;;;;;;0.95;0.93;;;6.80;99.90;;;;;;4434236;32;20564;-69
2023/02/14 02:48:06;;;;;;;1.00;0.98;;;6.70;99.90;;;;;;4431115;32;20097;-67
2023/02/14 02:53:10;;;;;;;5.53;1.60;;;6.60;99.90;;;;;;4420203;32;20134;-66
2023/02/14 02:53:35;;;;;;;2.05;1.12;;;6.70;99.90;;;;;;4419875;32;20109;-67
2023/02/14 02:57:04;;;;;;;0.75;0.75;;;6.70;99.90;;;;;;4433725;32;20139;-67
2023/02/14 02:58:55;;;;;;;3.50;1.15;;;6.70;99.90;;;;;;4420569;32;20338;-67
2023/02/14 03:01:26;;;;;;;7.10;1.55;;;6.70;99.90;;;;;;4431538;32;20076;-67
2023/02/14 03:04:57;;;;;;;1.83;1.67;;;6.70;99.90;;;;;;4431265;32;20339;-67
2023/02/14 03:06:43;;;;;;;;;;;6.60;99.90;;;;;;4425853;32;20132;-67
2023/02/14 03:09:30;;;;;;;0.80;0.80;;;6.60;99.90;;;;;;4415169;32;19972;-67
2023/02/14 03:12:22;;;;;;;2.92;1.40;;;6.50;99.90;;;;;;4416437;32;20548;-66
2023/02/14 03:14:57;;;;;;;1.25;1.15;;;6.60;99.90;;;;;;4432780;32;20068;-67
2023/02/14 03:17:34;;;;;;;8.02;1.27;;;6.70;99.90;;;;;;4415010;32;20117;-67
2023/02/14 03:20:29;;;;;;;1.33;1.17;;;6.70;99.90;;;;;;4430368;32;20088;-64
2023/02/14 03:23:21;;;;;;;6.25;1.40;;;6.70;99.90;;;;;;4402412;32;20781;-66
2023/02/14 03:26:13;;;;;;;9.90;0.85;;;6.60;99.90;;;;;;4423722;32;20116;-67
2023/02/14 03:28:48;;;;;;;1.55;0.88;;;6.60;99.90;;;;;;4420516;32;20520;-66
2023/02/14 03:31:28;;;;;;;1.35;1.25;;;6.70;99.90;;;;;;4433486;32;20108;-67
2023/02/14 03:34:00;;;;;;;1.12;1.00;;;6.60;99.90;;;;;;4431382;32;20124;-67
2023/02/14 03:36:40;;;;;;;5.78;1.70;;;6.60;99.90;;;;;;4432586;32;20093;-69
2023/02/14 03:39:15;;;;;;;5.20;1.42;;;6.60;99.90;;;;;;4419293;32;20113;-68
2023/02/14 03:41:51;;;;;;;0.60;0.60;;;6.70;99.90;;;;;;4431857;32;20135;-66
2023/02/14 03:44:21;;;;;;;2.85;1.40;;;6.70;99.90;;;;;;4413389;32;20086;-66
2023/02/14 03:46:52;;;;;;;2.08;1.15;;;6.70;99.90;;;;;;4432294;32;20080;-65
2023/02/14 03:49:22;;;;;;;0.57;0.57;;;6.70;99.90;;;;;;4419691;32;20116;-67
2023/02/14 03:51:50;;;;;;;2.37;0.93;;;6.70;99.90;;;;;;4407836;32;20080;-65
2023/02/14 03:54:17;;;;;;;1.05;0.98;;;6.70;99.90;;;;;;4427214;32;20091;-66
2023/02/14 03:56:47;;;;;;;3.40;1.25;;;6.60;99.90;;;;;;4417688;32;20064;-66
2023/02/14 03:59:15;;;;;;;2.60;1.75;;;6.70;99.90;;;;;;4431109;32;20065;-66
2023/02/14 04:02:04;;;;;;;5.50;1.35;;;6.70;99.90;;;;;;4432696;32;20065;-67
2023/02/14 04:04:34;;;;;;;2.17;1.20;;;6.70;99.90;;;;;;4409368;32;20540;-66
2023/02/14 04:07:08;;;;;;;1.80;1.20;;;6.70;99.90;;;;;;4432563;32;20115;-67
2023/02/14 04:09:33;;;;;;;11.12;1.55;;;6.70;99.90;;;;;;4415802;32;20112;-65
2023/02/14 04:11:59;;;;;;;1.10;0.80;;;6.60;99.90;;;;;;4430756;32;20077;-67
2023/02/14 04:14:28;;;;;;;2.83;1.30;;;6.60;99.90;;;;;;4431464;32;20181;-67
2023/02/14 04:19:24;;;;;;;2.60;1.52;;;6.60;99.90;;;;;;4434764;32;20097;-67
2023/02/14 04:19:39;;;;;;;1.08;0.98;;;6.60;99.90;;;;;;4416496;32;20564;-65
2023/02/14 04:22:04;;;;;;;0.50;0.50;;;6.70;99.90;;;;;;4437154;32;20072;-66
2023/02/14 04:24:30;;;;;;;12.63;1.73;;;6.80;99.90;;;;;;4432915;32;20089;-66
2023/02/14 04:27:10;;;;;;;0.57;0.57;;;6.70;99.90;;;;;;4433941;32;20061;-67
2023/02/14 04:29:40;;;;;;;7.18;1.75;;;6.70;99.90;;;;;;4430162;32;20229;-67
2023/02/14 04:32:08;;;;;;;3.72;2.00;;;6.60;99.90;;;;;;4430574;32;20508;-65
2023/02/14 04:34:33;;;;;;;1.85;1.10;;;6.60;99.90;;;;;;4415156;32;20515;-67
2023/02/14 04:36:59;;;;;;;4.87;1.65;;;6.50;99.90;;;;;;4429033;32;20069;-66
2023/02/14 04:39:25;;;;;;;1.58;1.42;;;6.50;99.90;;;;;;4429027;32;20085;-64
2023/02/14 04:41:50;;;;;;;1.33;1.23;;;6.60;99.90;;;;;;4432540;32;20405;-65
2023/02/14 04:44:15;;;;;;;1.62;1.00;;;6.70;99.90;;;;;;4432296;32;20536;-65
2023/02/14 04:46:41;;;;;;;0.82;0.82;;;6.70;99.90;;;;;;4431199;32;20074;-67
2023/02/14 04:49:06;;;;;;;14.20;1.50;;;6.50;99.90;;;;;;4424552;32;20072;-67
2023/02/14 04:51:32;;;;;;;1.62;1.05;;;6.40;99.90;;;;;;4427650;32;20061;-67
2023/02/14 04:53:57;;;;;;;4.53;1.27;;;6.30;99.90;;;;;;4430375;32;20093;-67
2023/02/14 04:56:24;;;;;;;0.60;0.60;;;6.30;99.90;;;;;;4429792;32;20128;-67
2023/02/14 04:58:50;;;;;;;1.23;0.90;;;6.20;99.90;;;;;;4428293;32;20094;-66
2023/02/14 05:01:15;;;;;;;1.10;1.00;;;6.20;99.90;;;;;;4428443;32;20774;-67
2023/02/14 05:03:41;;;;;;;2.08;1.42;;;6.30;99.90;;;;;;4425913;32;20069;-66
2023/02/14 05:06:06;;;;;;;0.93;0.90;;;6.30;99.90;;;;;;4428854;32;20992;-65
2023/02/14 05:08:32;;;;;;;2.12;1.23;;;6.40;99.90;;;;;;4429802;32;20073;-67
2023/02/14 05:10:57;;;;;;;3.80;1.90;;;6.40;99.90;;;;;;4426333;32;20537;-67
2023/02/14 05:13:23;;;;;;;24.63;2.40;;;6.50;99.90;;;;;;4432236;32;20132;-67
2023/02/14 05:15:48;;;;;;;1.45;1.12;;;6.60;99.90;;;;;;4431217;32;20069;-66
2023/02/14 05:18:13;;;;;;;2.67;1.83;;;6.60;99.90;;;;;;4431424;32;20082;-66
2023/02/14 05:20:39;;;;;;;0.90;0.90;;;6.60;99.90;;;;;;4428239;32;20533;-69
2023/02/14 05:23:05;;;;;;;6.65;1.52;;;6.50;99.90;;;;;;4412560;32;20089;-66
2023/02/14 05:25:31;;;;;;;2.97;1.40;;;6.40;99.90;;;;;;4431036;32;20431;-67
2023/02/14 05:27:57;;;;;;;2.15;1.95;;;6.50;99.90;;;;;;4430923;32;20073;-67
2023/02/14 05:30:26;;;;;;;2.40;1.55;;;6.40;99.90;;;;;;4430814;32;20141;-66
2023/02/14 05:32:53;;;;;;;1.08;1.02;;;6.40;99.90;;;;;;4429291;32;20084;-67
2023/02/14 05:35:18;;;;;;;1.33;1.23;;;6.40;99.90;;;;;;4429842;32;20085;-66
2023/02/14 05:37:44;;;;;;;0.95;0.90;;;6.40;99.90;;;;;;4431166;32;20132;-67
2023/02/14 05:40:12;;;;;;;1.17;1.08;;;6.40;99.90;;;;;;4430734;32;20104;-66
2023/02/14 05:42:39;;;;;;;1.10;1.00;;;6.40;99.90;;;;;;4430602;32;20082;-68
2023/02/14 05:45:05;;;;;;;4.62;1.92;;;6.40;99.90;;;;;;4432546;32;20187;-67
2023/02/14 05:47:30;;;;;;;2.12;1.42;;;6.30;99.90;;;;;;4429356;32;20081;-66
2023/02/14 05:49:56;;;;;;;1.37;1.27;;;6.30;99.90;;;;;;4434000;32;20117;-66
2023/02/14 05:52:21;;;;;;;2.92;1.30;;;6.30;99.90;;;;;;4430823;32;20426;-67
2023/02/14 05:54:47;;;;;;;8.73;2.05;;;6.40;99.90;;;;;;4433134;32;20124;-64
2023/02/14 05:57:12;;;;;;;2.28;1.80;;;6.50;99.90;;;;;;4431691;32;20085;-66
2023/02/14 05:59:37;;;;;;;1.87;0.98;;;6.50;99.90;;;;;;4427635;32;20165;-66
2023/02/14 06:02:03;;;;;;;2.25;1.08;;;6.50;99.90;;;;;;4429522;32;20128;-67
2023/02/14 06:04:28;;;;;;;2.20;1.60;;;6.50;99.90;;;;;;4428171;32;20185;-64
2023/02/14 06:06:54;;;;;;;6.22;1.98;;;6.50;99.90;;;;;;4428598;32;20477;-66
2023/02/14 06:09:19;;;;;;;5.85;1.98;;;6.50;99.90;;;;;;4428669;32;20257;-67
2023/02/14 06:11:45;;;;;;;1.67;1.23;;;6.40;99.90;;;;;;4428063;32;21571;-66
2023/02/14 06:14:10;;;;;;;1.23;1.17;;;6.40;99.90;;;;;;4430163;32;20057;-67
2023/02/14 06:16:36;;;;;;;6.00;2.15;;;6.40;99.90;;;;;;4423928;32;20090;-66
2023/02/14 06:19:01;;;;;;;0.50;0.50;;;6.50;99.90;;;;;;4416590;32;20084;-66
2023/02/14 06:21:27;;;;;;;6.03;2.12;;;6.50;99.90;;;;;;4429681;32;20068;-66
2023/02/14 06:23:52;;;;;;;6.87;3.70;;;6.60;99.90;;;;;;4429837;32;20069;-66
2023/02/14 06:26:18;;;;;;;2.92;1.37;;;6.40;99.90;;;;;;4422190;32;20527;-64
2023/02/14 06:28:44;;;;;;;14.90;3.17;;;6.30;99.90;;;;;;4427473;32;20103;-67
2023/02/14 06:31:16;;;;;;;0.80;0.80;;;6.30;99.90;;;;;;4411937;32;20420;-64
2023/02/14 06:33:43;;;;;;;0.90;0.90;;;6.20;99.90;;;;;;4422555;32;20629;-66
2023/02/14 06:36:09;;;;;;;1.85;1.27;;;6.20;99.90;;;;;;4424964;32;20699;-66
2023/02/14 06:38:35;;;;;;;4.62;1.60;;;6.30;99.90;;;;;;4417331;32;20140;-66
2023/02/14 06:41:05;;;;;;;0.85;0.85;;;6.20;99.90;;;;;;4424917;32;20125;-67
2023/02/14 06:43:32;;;;;;;3.20;1.35;;;6.20;99.90;;;;;;4418206;32;20097;-67
2023/02/14 06:45:58;;;;;;;15.63;2.10;;;6.20;99.90;;;;;;4388966;32;20131;-65
2023/02/14 06:48:23;;;;;;;4.00;1.20;;;6.30;99.90;;;;;;4410411;32;20096;-67
2023/02/14 06:50:51;;;;;;;11.25;2.97;;;6.40;99.90;;;;;;4415293;32;20085;-67
2023/02/14 06:53:19;;;;;;;18.62;1.30;;;6.30;99.90;;;;;;4403616;32;20083;-66
2023/02/14 06:55:44;;;;;;;5.00;1.77;;;6.30;99.90;;;;;;4411472;32;20190;-66
2023/02/14 06:58:10;;;;;;;3.40;1.67;;;6.40;99.90;;;;;;4394487;32;20197;-67
2023/02/14 07:00:36;;;;;;;1.40;1.30;;;6.40;99.90;;;;;;4386300;32;20229;-65
2023/02/14 07:03:01;;;;;;;1.58;1.23;;;6.40;99.90;;;;;;4384147;32;20245;-65
2023/02/14 07:05:27;;;;;;;6.00;1.55;;;6.50;99.90;;;;;;4377167;32;21291;-65
2023/02/14 07:07:52;;;;;;;2.45;1.27;;;6.60;99.90;;;;;;4383986;32;20782;-66
2023/02/14 07:10:18;;;;;;;3.03;1.25;;;6.60;99.90;;;;;;4393112;32;20108;-65
2023/02/14 07:12:43;;;;;;;2.78;1.52;;;6.50;99.90;;;;;;4399835;32;20437;-65
2023/02/14 07:15:12;;;;;;;2.05;1.05;;;6.60;99.90;;;;;;4408070;32;20108;-65
2023/02/14 07:17:37;;;;;;;6.20;1.98;;;6.50;99.90;;;;;;4391724;32;20077;-65
2023/02/14 07:20:05;;;;;;;11.80;1.17;;;6.40;99.90;;;;;;4392522;32;20130;-66
2023/02/14 07:22:31;;;;;;;1.52;1.42;;;6.40;99.90;;;;;;4400399;32;20288;-66
2023/02/14 07:24:56;;;;;;;4.50;1.75;;;6.40;99.90;;;;;;4389716;32;20757;-66
2023/02/14 07:27:22;;;;;;;4.10;1.37;;;6.50;99.90;;;;;;4396133;32;20977;-65
2023/02/14 07:29:47;;;;;;;4.25;1.73;;;6.50;99.90;;;;;;4387824;32;20163;-66
2023/02/14 07:32:13;;;;;;;1.55;1.20;;;6.60;99.90;;;;;;4394947;32;20111;-66
2023/02/14 07:34:38;;;;;;;1.62;1.12;;;6.50;99.90;;;;;;4391511;32;20143;-65
2023/02/14 07:37:04;;;;;;;5.37;1.65;;;6.50;99.90;;;;;;4397542;32;20088;-65
2023/02/14 07:39:29;;;;;;;7.40;1.70;;;6.60;99.90;;;;;;4394054;32;20101;-66
2023/02/14 07:41:55;;;;;;;5.40;0.88;;;6.70;99.90;;;;;;4393664;32;20586;-66
2023/02/14 07:44:20;;;;;;;1.35;1.00;;;6.60;99.90;;;;;;4398752;32;20120;-65
2023/02/14 07:46:46;;;;;;;5.20;1.73;;;6.60;99.90;;;;;;4389141;32;20093;-65
2023/02/14 07:49:11;;;;;;;5.43;1.42;;;6.70;99.90;;;;;;4380078;32;20117;-66
2023/02/14 07:51:37;;;;;;;3.70;1.95;;;6.70;99.90;;;;;;4388816;32;20113;-66
2023/02/14 07:54:03;;;;;;;3.25;1.87;;;6.70;99.90;;;;;;4383838;32;20101;-66
2023/02/14 07:56:28;;;;;;;2.62;1.40;;;6.70;99.90;;;;;;4391414;32;20097;-66
2023/02/14 07:58:54;;;;;;;3.08;1.42;;;6.70;99.90;;;;;;4385766;32;20104;-65
2023/02/14 08:01:19;;;;;;;1.15;1.05;;;6.70;99.90;;;;;;4385543;32;20499;-66
2023/02/14 08:03:48;;;;;;;3.33;1.55;;;6.80;99.90;;;;;;4386463;32;20102;-66
2023/02/14 08:06:15;;;;;;;2.28;1.85;;;6.90;99.90;;;;;;4397211;32;20097;-65
2023/02/14 08:08:41;;;;;;;1.95;1.27;;;6.90;99.90;;;;;;4394664;32;20096;-65
2023/02/14 08:11:06;;;;;;;4.05;1.65;;;6.90;99.90;;;;;;4388729;32;20116;-65
2023/02/14 08:13:32;;;;;;;5.37;1.90;;;7.00;99.90;;;;;;4391728;32;20922;-66
2023/02/14 08:16:06;;;;;;;0.98;0.85;;;7.00;99.90;;;;;;4383500;32;20883;-66
2023/02/14 08:18:37;;;;;;;4.55;1.25;;;7.10;99.90;;;;;;4374363;32;20188;-65
2023/02/14 08:21:05;;;;;;;5.50;2.50;;;7.10;99.90;;;;;;4385946;32;20482;-66
2023/02/14 08:23:30;;;;;;;5.72;1.30;;;7.00;99.90;;;;;;4384219;32;20117;-66
2023/02/14 08:25:56;;;;;;;6.32;0.80;;;7.00;99.90;;;;;;4375031;32;20097;-66
2023/02/14 08:28:22;;;;;;;2.70;1.20;;;7.10;99.90;;;;;;4376629;32;20108;-64
2023/02/14 08:30:48;;;;;;;11.05;1.95;;;7.20;99.90;;;;;;4369298;32;20126;-66
2023/02/14 08:33:13;;;;;;;3.70;1.27;;;7.20;99.90;;;;;;4374733;32;20177;-65
2023/02/14 08:35:39;;;;;;;1.92;1.23;;;7.10;99.90;;;;;;4392850;32;20101;-65
2023/02/14 08:38:05;;;;;;;1.85;1.27;;;7.10;99.90;;;;;;4395787;32;20104;-66
2023/02/14 08:40:32;;;;;;;2.15;1.37;;;7.10;99.90;;;;;;4401792;32;20109;-66
2023/02/14 08:42:57;;;;;;;0.75;0.65;;;7.10;99.90;;;;;;4405262;32;20129;-66
2023/02/14 08:45:23;;;;;;;2.50;1.27;;;7.20;99.90;;;;;;4409038;32;20104;-66
2023/02/14 08:47:48;;;;;;;7.90;2.08;;;7.20;99.90;;;;;;4398531;32;20108;-66
2023/02/14 08:50:17;;;;;;;4.57;1.48;;;7.30;99.90;;;;;;4376673;32;20877;-66
2023/02/14 08:52:43;;;;;;;1.05;0.88;;;7.30;99.90;;;;;;4375094;32;20141;-65
2023/02/14 08:55:09;;;;;;;1.02;0.90;;;7.30;99.90;;;;;;4384277;32;20213;-67
2023/02/14 08:57:35;;;;;;;2.03;1.50;;;7.40;99.90;;;;;;4386802;32;20503;-66
2023/02/14 09:00:01;;;;;;;4.72;1.55;;;7.40;99.90;;;;;;4388988;32;20112;-66
2023/02/14 09:02:27;;;;;;;1.10;0.90;;;7.40;99.90;;;;;;4390455;32;20081;-66
2023/02/14 09:04:52;;;;;;;0.52;0.52;;;7.40;99.90;;;;;;4402274;32;20706;-66
2023/02/14 09:07:18;;;;;;;1.42;1.35;;;7.40;99.90;;;;;;4396252;32;20195;-66
2023/02/14 09:09:44;;;;;;;3.10;2.15;;;7.30;99.90;;;;;;4394269;32;20093;-66
2023/02/14 09:12:10;;;;;;;0.52;0.52;;;7.40;99.90;;;;;;4399837;32;20410;-65
2023/02/14 09:14:37;;;;;;;2.37;1.87;;;7.40;99.90;;;;;;4405524;32;20699;-65
2023/02/14 09:17:04;;;;;;;3.37;1.05;;;7.40;99.90;;;;;;4405216;32;20080;-65
2023/02/14 09:19:31;;;;;;;0.62;0.62;;;7.40;99.90;;;;;;4396816;32;20147;-66
2023/02/14 09:21:57;;;;;;;1.35;1.25;;;7.50;99.90;;;;;;4393855;32;20101;-65
2023/02/14 09:24:22;;;;;;;2.20;0.90;;;7.50;99.90;;;;;;4401749;32;20100;-64
2023/02/14 09:26:47;;;;;;;1.50;1.08;;;7.40;99.90;;;;;;4397983;32;20682;-65
2023/02/14 09:29:14;;;;;;;0.88;0.88;;;7.40;99.90;;;;;;4388409;32;20211;-65
2023/02/14 09:31:40;;;;;;;2.25;1.23;;;7.40;99.90;;;;;;4387708;32;20073;-68
2023/02/14 09:35:06;;;;;;;2.90;0.85;;;7.30;99.90;;;;;;4396709;32;20085;-67
2023/02/14 09:36:51;;;;;;;0.98;0.98;;;7.30;99.90;;;;;;4399166;32;21830;-66
2023/02/14 09:39:17;;;;;;;6.22;1.23;;;7.40;99.90;;;;;;4392279;32;20100;-66
2023/02/14 09:42:21;;;;;;;3.50;1.80;;;7.40;99.90;;;;;;4383300;32;20097;-67
2023/02/14 09:44:55;;;;;;;7.57;2.40;;;7.50;99.90;;;;;;4394773;32;20301;-66
2023/02/14 09:47:32;;;;;;;1.05;1.05;;;7.50;99.90;;;;;;4404243;32;20270;-67
2023/02/14 09:49:59;;;;;;;3.90;1.02;;;7.40;99.90;;;;;;4404868;32;21006;-67
2023/02/14 09:52:29;;;;;;;1.05;0.90;;;7.50;99.90;;;;;;4398108;32;20709;-67
2023/02/14 09:54:59;;;;;;;1.52;1.12;;;7.40;99.90;;;;;;4396330;32;20088;-67
2023/02/14 09:57:55;;;;;;;3.15;1.33;;;7.40;99.90;;;;;;4394204;32;20167;-65
2023/02/14 10:00:34;;;;;;;2.17;1.58;;;7.50;99.90;;;;;;4393816;32;20109;-66
2023/02/14 10:03:07;;;;;;;0.50;0.50;;;7.60;99.90;;;;;;4394690;32;21327;-68
2023/02/14 10:05:41;;;;;;;0.98;0.82;;;7.60;99.90;;;;;;4404490;32;20092;-68
2023/02/14 10:08:47;;;;;;;3.67;1.17;;;7.50;99.90;;;;;;4391815;32;20390;-66
2023/02/14 10:11:19;;;;;;;11.25;1.00;;;7.40;99.90;;;;;;4393163;32;21859;-69
2023/02/14 10:13:53;;;;;;;3.20;1.85;;;7.40;99.90;;;;;;4386222;32;20116;-66
2023/02/14 10:16:32;;;;;;;0.60;0.60;;;7.40;99.90;;;;;;4395547;32;20559;-66
2023/02/14 10:19:03;;;;;;;4.95;1.40;;;7.50;99.90;;;;;;4392364;32;20124;-66
2023/02/14 10:21:40;;;;;;;0.88;0.88;;;7.60;99.90;;;;;;4378343;32;20092;-68
2023/02/14 10:24:17;;;;;;;5.03;2.30;;;7.60;99.90;;;;;;4377176;32;20966;-66
2023/02/14 10:26:47;;;;;;;3.22;1.35;;;7.50;99.90;;;;;;4372314;32;20833;-68
2023/02/14 10:29:15;;;;;;;5.62;1.50;;;7.60;99.90;;;;;;4375503;32;20836;-68
2023/02/14 10:31:54;;;;;;;3.75;0.95;;;7.60;99.90;;;;;;4377168;32;20097;-67
2023/02/14 10:34:27;;;;;;;1.27;0.88;;;7.60;99.90;;;;;;4374713;32;20112;-67
2023/02/14 10:37:03;;;;;;;1.27;1.15;;;7.40;99.90;;;;;;4373964;32;20108;-68
2023/02/14 10:39:43;;;;;;;2.75;1.20;;;7.50;99.90;;;;;;4389681;32;20113;-68
2023/02/14 10:42:33;;;;;;;2.47;1.12;;;7.40;99.90;;;;;;4381549;32;20501;-66
2023/02/14 10:45:29;;;;;;;0.98;0.90;;;7.40;99.90;;;;;;4383880;32;20073;-66
2023/02/14 10:48:12;;;;;;;5.15;2.08;;;7.40;99.90;;;;;;4381389;32;25365;-69
2023/02/14 10:50:51;;;;;;;0.60;0.60;;;7.40;99.90;;;;;;4385588;32;20093;-68
2023/02/14 10:53:40;;;;;;;6.95;1.55;;;7.50;99.90;;;;;;4379463;32;20116;-67
2023/02/14 10:56:20;;;;;;;0.40;0.40;;;7.40;99.90;;;;;;4373337;32;21529;-66
2023/02/14 10:58:48;;;;;;;0.68;0.68;;;7.30;99.90;;;;;;4388536;32;21777;-65
2023/02/14 11:01:16;;;;;;;0.90;0.90;;;7.40;99.90;;;;;;4379604;32;21748;-66
2023/02/14 11:04:02;;;;;;;5.37;1.37;;;7.40;99.90;;;;;;4363122;32;20596;-66
2023/02/14 11:06:30;;;;;;;1.40;0.98;;;7.30;99.90;;;;;;4368809;32;20193;-67
2023/02/14 11:08:55;;;;;;;0.60;0.60;;;7.40;99.90;;;;;;4380991;32;20169;-67
2023/02/14 11:11:28;;;;;;;1.98;1.33;;;7.30;99.90;;;;;;4385711;32;20077;-66
2023/02/14 11:13:54;;;;;;;2.17;1.67;;;7.30;99.90;;;;;;4371662;32;20073;-66
2023/02/14 11:16:36;;;;;;;1.15;1.10;;;7.40;99.90;;;;;;4379801;32;21046;-66
2023/02/14 11:19:24;;;;;;;1.55;1.27;;;7.30;99.90;;;;;;4369305;32;20319;-65
2023/02/14 11:21:51;;;;;;;7.53;2.58;;;7.30;99.90;;;;;;4372802;32;20093;-67
2023/02/14 11:24:27;;;;;;;0.95;0.60;;;7.40;99.90;;;;;;4387515;32;20101;-66
2023/02/14 11:26:59;;;;;;;1.37;0.77;;;7.50;99.90;;;;;;4389286;32;20523;-65
2023/02/14 11:29:27;;;;;;;0.62;0.62;;;7.30;99.90;;;;;;4410827;32;20093;-65
2023/02/14 11:31:55;;;;;;;2.03;1.30;;;7.20;99.90;;;;;;4393686;32;20651;-65
2023/02/14 11:34:31;;;;;;;1.20;1.15;;;7.20;99.90;;;;;;4391226;32;20085;-66
2023/02/14 11:36:59;;;;;;;1.17;1.08;;;7.30;99.90;;;;;;4407102;32;20155;-66
2023/02/14 11:39:29;;;;;;;3.03;1.25;;;7.40;99.90;;;;;;4379167;32;20089;-67
2023/02/14 11:41:59;;;;;;;1.30;1.20;;;7.40;99.90;;;;;;4387971;32;92214;-66
2023/02/14 11:44:27;;;;;;;0.77;0.77;;;7.50;99.90;;;;;;4406529;32;20146;-67
2023/02/14 11:46:55;;;;;;;1.00;0.98;;;7.40;99.90;;;;;;4381839;32;20070;-66
2023/02/14 11:49:27;;;;;;;7.53;1.98;;;7.50;99.90;;;;;;4408248;32;20081;-67
2023/02/14 11:51:54;;;;;;;5.93;1.33;;;7.60;99.90;;;;;;4384774;32;20532;-65
2023/02/14 11:54:36;;;;;;;1.05;0.95;;;7.60;99.90;;;;;;4369859;32;20418;-65
2023/02/14 11:57:36;;;;;;;0.93;0.90;;;7.50;99.90;;;;;;4374665;32;21529;-65
2023/02/14 12:00:13;;;;;;;2.92;1.27;;;7.60;99.90;;;;;;4357455;32;20146;-66
2023/02/14 12:02:43;;;;;;;10.13;1.80;;;7.60;99.90;;;;;;4367229;32;20100;-66
2023/02/14 12:05:19;;;;;;;1.42;1.12;;;7.50;99.90;;;;;;4382071;32;20097;-66
2023/02/14 12:07:48;;;;;;;1.92;1.05;;;7.60;99.90;;;;;;4385554;32;20393;-64
2023/02/14 12:10:16;;;;;;;5.05;1.05;;;7.60;99.90;;;;;;4388846;32;20081;-64
2023/02/14 12:12:52;;;;;;;3.00;1.10;;;7.60;99.90;;;;;;4378420;32;20175;-64
2023/02/14 12:15:28;;;;;;;1.00;0.82;;;7.70;99.90;;;;;;4381889;32;20096;-65
2023/02/14 12:18:05;;;;;;;2.20;0.85;;;7.70;99.90;;;;;;4389122;32;20179;-64
2023/02/14 12:20:41;;;;;;;2.00;1.10;;;7.60;99.90;;;;;;4386175;32;20200;-65
2023/02/14 12:23:21;;;;;;;0.68;0.68;;;7.50;99.90;;;;;;4382812;32;20684;-65
2023/02/14 12:25:57;;;;;;;2.55;1.40;;;7.50;99.90;;;;;;4389092;32;20101;-65
2023/02/14 12:28:30;;;;;;;6.43;2.50;;;7.30;99.90;;;;;;4374647;32;20085;-65
2023/02/14 12:30:56;;;;;;;0.60;0.60;;;7.20;99.90;;;;;;4366727;32;20104;-65
2023/02/14 12:33:23;;;;;;;3.65;1.62;;;7.30;99.90;;;;;;4383798;32;20081;-65
2023/02/14 12:36:17;;;;;;;19.70;1.33;;;7.30;99.90;;;;;;4352681;32;20733;-65
2023/02/14 12:39:00;;;;;;;4.25;2.70;;;7.30;99.90;;;;;;4355894;32;20078;-66
2023/02/14 12:42:05;;;;;;;1.12;1.02;;;7.30;99.90;;;;;;4393995;32;20815;-67
2023/02/14 12:45:02;;;;;;;0.52;0.52;;;7.30;99.90;;;;;;4355538;32;20448;-67
2023/02/14 12:47:55;;;;;;;3.72;0.90;;;7.30;99.90;;;;;;4378489;32;20093;-65
2023/02/14 12:50:33;;;;;;;1.23;1.02;;;7.40;99.90;;;;;;4391317;32;20108;-65
2023/02/14 12:53:29;;;;;;;2.05;1.12;;;7.30;99.90;;;;;;4395375;32;20572;-64
2023/02/14 12:56:00;;;;;;;3.08;1.02;;;7.40;99.90;;;;;;4382344;32;20163;-64
2023/02/14 12:58:51;;;;;;;3.83;1.40;;;7.50;99.90;;;;;;4394023;32;20097;-66
2023/02/14 13:01:48;;;;;;;1.58;1.30;;;7.50;99.90;;;;;;4379932;32;21820;-65
2023/02/14 13:04:36;;;;;;;0.70;0.70;;;7.40;99.90;;;;;;4390634;32;20153;-65
2023/02/14 13:07:15;;;;;;;0.68;0.68;;;7.50;99.90;;;;;;4396064;32;20110;-67
2023/02/14 13:10:05;;;;;;;0.68;0.68;;;7.50;99.90;;;;;;4403765;32;20128;-66
2023/02/14 13:12:41;;;;;;;3.12;1.12;;;7.40;99.90;;;;;;4400245;32;20683;-66
2023/02/14 13:15:17;;;;;;;7.22;1.35;;;7.30;99.90;;;;;;4404992;32;20168;-65
2023/02/14 13:17:53;;;;;;;2.40;1.20;;;7.10;99.90;;;;;;4412080;32;20824;-66
2023/02/14 13:20:40;;;;;;;1.02;0.70;;;7.10;99.90;;;;;;4395065;32;20481;-66